Latest Weather Observations for Century Mine

IDQ60801

Issued at 2:32 pm EST Tuesday 3 May 2016 (issued every 30 minutes, with the page automatically refreshed every 10 minutes)

About weather observations | Map of weather stations | Latest weather observations for QLD | Other Formats
Station Details ID: 029167 Name: CENTURY MINE Lat: -18.76 Lon: 138.71 Height: 126.8 m
Data from the previous 72 hours. | See also: Recent months at Century Mine
Date/Time
EST
Temp
°C
App
Temp
°C
Dew
Point
Rel
Hum
%
Delta-T
°C
Wind Press
QNH
hPa
Press
MSL
hPa
Rain
since 9 am
mm
Dir
 
Spd
km/h
Gust
km/h
Spd
kts
Gust
kts
03/02:30pm 33.3 32.1 13.9 31 11.9 SSW 13 24 7 13 1012.1 1011.5 0.0
03/02:00pm 33.7 32.2 13.2 29 12.4 S 13 20 7 11 1012.5 1011.9 0.0
03/01:30pm 33.6 32.7 13.6 29 12.2 S 11 17 6 9 1013.0 1012.4 0.0
03/01:00pm 32.6 30.8 13.3 31 11.7 S 15 26 8 14 1013.6 1013.0 0.0
03/12:30pm 32.5 31.0 13.2 31 11.7 SSE 13 20 7 11 1014.1 1013.5 0.0
03/12:00pm 32.2 30.3 12.9 31 11.6 S 15 24 8 13 1014.6 1014.0 0.0
03/11:30am 32.0 30.2 13.2 31 11.3 SSW 15 24 8 13 1015.1 1014.5 0.0
03/11:00am 32.6 31.4 12.8 30 11.9 SSE 11 20 6 11 1015.3 1014.7 0.0
03/10:30am 32.4 31.5 13.6 32 11.4 S 11 20 6 11 1015.6 1015.0 0.0
03/10:00am 30.8 29.5 13.6 35 10.4 S 13 20 7 11 1015.5 1014.9 0.0
03/09:30am 31.3 29.3 14.0 35 10.5 SSE 17 26 9 14 1015.2 1014.6 0.0
03/09:00am 30.3 29.5 14.0 37 9.9 SSE 11 17 6 9 1015.1 1014.5 0.0
03/08:30am 28.8 28.6 14.6 42 8.6 S 9 17 5 9 1014.8 1014.2 0.0
03/08:00am 26.6 27.9 16.2 52 6.4 SSE 4 7 2 4 1014.6 1014.0 0.0
03/07:30am 24.1 24.7 15.9 60 5.0 SSE 7 7 4 4 1014.2 1013.6 0.0
03/07:00am 24.4 24.7 15.1 56 5.6 SSE 7 9 4 5 1014.0 1013.4 0.0
03/06:30am 24.0 24.5 15.0 57 5.4 SSE 6 7 3 4 1013.6 1013.0 0.0
03/06:00am 25.2 25.4 14.6 51 6.4 SE 7 9 4 5 1013.3 1012.7 0.0
03/05:30am 25.5 25.5 14.3 50 6.7 SE 7 7 4 4 1012.9 1012.3 0.0
03/05:00am 25.7 25.9 14.2 49 6.9 ESE 6 9 3 5 1012.7 1012.1 0.0
03/04:30am 25.8 25.9 14.0 48 7.0 SSE 6 7 3 4 1012.6 1012.0 0.0
03/04:00am 25.5 25.4 13.4 47 7.1 SSE 6 9 3 5 1012.4 1011.8 0.0
03/03:30am 25.7 25.8 13.9 48 7.0 S 6 7 3 4 1012.2 1011.6 0.0
03/03:00am 25.9 25.7 13.7 47 7.2 S 7 9 4 5 1012.4 1011.8 0.0
03/02:30am 26.1 25.6 13.9 47 7.3 SSE 9 9 5 5 1012.3 1011.7 0.0
03/02:00am 26.5 26.5 14.3 47 7.3 S 7 9 4 5 1012.8 1012.2 0.0
03/01:30am 26.8 27.9 17.0 55 6.1 SSE 7 9 4 5 1013.0 1012.4 0.0
03/01:00am 27.9 30.1 18.3 56 6.2 SE 4 9 2 5 1013.2 1012.6 0.0
03/12:30am 29.3 31.7 19.6 56 6.4 ESE 6 9 3 5 1013.2 1012.6 0.0
03/12:00am 30.3 32.2 20.5 55 6.5 E 11 19 6 10 1013.3 1012.7 0.0
 
Date/Time
EST
Temp
°C
App
Temp
°C
Dew
Point
Rel
Hum
%
Delta-T
°C
Wind Press
QNH
hPa
Press
MSL
hPa
Rain
since 9 am
mm
Dir
 
Spd
km/h
Gust
km/h
Spd
kts
Gust
kts
02/11:30pm 30.5 32.7 20.4 54 6.7 ESE 9 13 5 7 1013.5 1012.9 0.0
02/11:00pm 31.1 32.7 19.1 48 7.9 ESE 9 15 5 8 1013.4 1012.8 0.0
02/10:30pm 31.5 33.3 18.8 46 8.3 ESE 7 11 4 6 1013.5 1012.9 0.0
02/10:00pm 32.5 31.8 13.2 31 11.7 ENE 9 17 5 9 1013.4 1012.8 0.0
02/09:30pm 32.9 30.8 12.5 29 12.2 S 15 26 8 14 1012.8 1012.2 0.0
02/09:00pm 29.7 31.9 16.5 45 8.3 CALM 0 0 0 0 1012.4 1011.8 0.0
02/08:30pm 29.5 31.9 17.0 47 7.9 CALM 0 0 0 0 1012.2 1011.6 0.0
02/08:00pm 29.7 31.9 16.5 45 8.3 CALM 0 0 0 0 1011.8 1011.2 0.0
02/07:30pm 30.2 32.7 17.3 46 8.2 CALM 0 0 0 0 1011.5 1011.0 0.0
02/07:00pm 30.8 32.8 16.0 40 9.3 CALM 0 0 0 0 1011.2 1010.7 0.0
02/06:30pm 33.0 33.2 14.1 32 11.6 ENE 6 6 3 3 1010.7 1010.2 0.0
02/06:00pm 35.3 36.4 14.6 29 12.9 NE 2 6 1 3 1010.4 1009.8 0.0
02/05:30pm 36.8 37.5 13.5 24 14.4 NW 2 7 1 4 1010.1 1009.5 0.0
02/05:00pm 37.3 37.4 14.0 25 14.5 WSW 6 7 3 4 1010.0 1009.4 0.0
02/04:30pm 37.7 38.1 13.7 24 14.9 W 4 7 2 4 1010.0 1009.4 0.0
02/04:00pm 37.4 37.3 13.4 24 14.8 NE 6 13 3 7 1010.1 1009.5 0.0
02/03:30pm 37.7 36.9 13.0 23 15.2 N 9 13 5 7 1010.3 1009.7 0.0
02/03:00pm 37.6 36.8 12.9 23 15.1 NNE 9 15 5 8 1010.6 1010.0 0.0
02/02:30pm 37.9 38.0 13.8 23 15.0 NNW 6 13 3 7 1010.9 1010.4 0.0
02/02:00pm 36.8 35.2 12.9 24 14.6 ESE 13 19 7 10 1011.1 1010.6 0.0
02/01:30pm 37.0 37.0 14.3 26 14.2 NE 7 17 4 9 1011.5 1011.0 0.0
02/01:00pm 35.8 35.9 13.9 27 13.5 NW 6 9 3 5 1012.1 1011.5 0.0
02/12:30pm 36.5 37.2 16.1 29 13.0 NNE 7 15 4 8 1012.6 1012.0 0.0
02/12:00pm 35.7 36.0 15.9 30 12.6 NE 9 17 5 9 1013.1 1012.5 0.0
02/11:30am 35.0 36.0 16.8 34 11.7 ENE 7 13 4 7 1013.5 1012.9 0.0
02/11:00am 34.6 36.2 17.8 37 10.9 E 6 13 3 7 1013.9 1013.3 0.0
02/10:30am 33.2 34.7 18.9 42 9.4 SSW 9 13 5 7 1014.0 1013.4 0.0
02/10:00am 32.4 34.4 20.0 48 8.2 SSW 9 15 5 8 1014.1 1013.5 0.0
02/09:30am 31.3 33.5 20.3 52 7.3 SW 9 13 5 7 1013.9 1013.3 0.0
02/09:00am 30.8 33.3 21.0 56 6.6 SSW 9 15 5 8 1013.9 1013.3 0.0
02/08:30am 28.8 32.6 21.6 65 4.8 SSE 4 7 2 4 1013.6 1013.0 0.0
02/08:00am 25.5 30.1 21.8 80 2.5 CALM 0 0 0 0 1013.4 1012.8 0.0
02/07:30am 22.8 26.3 19.6 82 2.1 CALM 0 0 0 0 1013.1 1012.5 0.0
02/07:00am 22.6 25.9 19.2 81 2.2 CALM 0 0 0 0 1012.7 1012.1 0.0
02/06:30am 22.7 26.0 19.1 80 2.3 CALM 0 0 0 0 1012.4 1011.8 0.0
02/06:00am 23.0 25.6 19.2 79 2.4 SSW 4 7 2 4 1012.0 1011.4 0.0
02/05:30am 23.3 25.3 19.2 78 2.6 S 7 7 4 4 1011.9 1011.3 0.0
02/05:00am 23.5 25.4 19.0 76 2.9 S 7 7 4 4 1012.0 1011.4 0.0
02/04:30am 23.8 26.0 19.5 77 2.8 S 7 9 4 5 1011.8 1011.2 0.0
02/04:00am 23.6 25.7 18.9 75 3.0 S 6 6 3 3 1011.6 1011.1 0.0
02/03:30am 23.8 27.1 19.1 75 3.0 CALM 0 0 0 0 1011.8 1011.2 0.0
02/03:00am 23.9 27.2 19.0 74 3.1 CALM 0 0 0 0 1012.0 1011.4 0.0
02/02:30am 24.2 27.4 18.8 72 3.4 CALM 0 0 0 0 1012.1 1011.5 0.0
02/02:00am 24.5 27.7 18.9 71 3.6 CALM 0 0 0 0 1012.3 1011.7 0.0
02/01:30am 24.9 28.1 18.8 69 3.9 CALM 0 0 0 0 1012.4 1011.8 0.0
02/01:00am 25.4 28.2 18.8 67 4.2 ENE 2 7 1 4 1012.8 1012.2 0.0
02/12:30am 25.8 29.1 19.0 66 4.4 CALM 0 0 0 0 1012.9 1012.3 0.0
02/12:00am 25.7 27.9 18.4 64 4.7 WNW 4 7 2 4 1012.8 1012.2 0.0
 
Date/Time
EST
Temp
°C
App
Temp
°C
Dew
Point
Rel
Hum
%
Delta-T
°C
Wind Press
QNH
hPa
Press
MSL
hPa
Rain
since 9 am
mm
Dir
 
Spd
km/h
Gust
km/h
Spd
kts
Gust
kts
01/11:30pm 26.2 29.1 18.1 61 5.1 CALM 0 0 0 0 1013.1 1012.5 0.0
01/11:00pm 26.4 29.2 18.0 60 5.3 CALM 0 0 0 0 1013.0 1012.4 0.0
01/10:30pm 26.7 29.4 17.8 58 5.6 CALM 0 0 0 0 1013.2 1012.6 0.0
01/10:00pm 27.1 29.7 17.6 56 6.0 CALM 0 0 0 0 1013.3 1012.7 0.0
01/09:30pm 27.4 30.1 17.8 55 6.1 CALM 0 0 0 0 1013.3 1012.7 0.0
01/09:00pm 27.9 30.6 17.7 53 6.5 CALM 0 0 0 0 1013.0 1012.4 0.0
01/08:30pm 28.6 31.1 17.2 50 7.2 CALM 0 0 0 0 1012.9 1012.3 0.0
01/08:00pm 29.1 31.5 17.0 48 7.6 CALM 0 0 0 0 1012.5 1011.9 0.0
01/07:30pm 30.1 32.5 16.9 45 8.3 CALM 0 0 0 0 1012.1 1011.5 0.0
01/07:00pm 31.7 32.4 16.0 38 9.9 NE 7 9 4 5 1011.6 1011.1 0.0
01/06:30pm 33.0 33.3 15.0 33 11.2 NE 7 9 4 5 1011.5 1011.0 0.0
01/06:00pm 35.1 35.6 14.9 29 12.6 ENE 6 9 3 5 1011.3 1010.8 0.0
01/05:30pm 36.0 36.0 15.2 29 13.1 NE 9 15 5 8 1011.0 1010.5 0.0
01/05:00pm 36.5 36.6 14.5 27 13.7 NNE 7 13 4 7 1010.9 1010.4 0.0
01/04:30pm 37.0 36.1 14.9 27 13.9 NE 13 17 7 9 1010.8 1010.3 0.0
01/04:00pm 37.1 37.0 15.0 27 13.9 NNE 9 15 5 8 1010.9 1010.4 0.0
01/03:30pm 36.5 36.8 14.5 27 13.7 SSE 6 13 3 7 1011.0 1010.5 0.0
01/03:00pm 37.0 37.3 14.9 27 13.9 NE 7 15 4 8 1011.3 1010.8 0.0
01/02:30pm 37.3 36.7 15.7 27 13.7 NE 13 20 7 11 1011.5 1011.0 0.0
01/02:00pm 36.3 35.8 14.9 28 13.4 NNE 11 19 6 10 1011.9 1011.3 0.0
01/01:30pm 36.5 35.7 16.1 29 13.0 NNE 15 22 8 12 1012.2 1011.6 0.0
01/01:00pm 35.9 36.0 16.6 31 12.4 ENE 11 19 6 10 1012.5 1011.9 0.0
01/12:30pm 36.6 37.0 17.2 31 12.6 NNE 11 20 6 11 1013.0 1012.4 0.0
01/12:00pm 35.6 35.3 17.3 33 11.8 NNE 15 24 8 13 1013.4 1012.8 0.0
01/11:30am 36.1 36.1 17.3 33 12.2 NE 13 20 7 11 1014.1 1013.5 0.0
01/11:00am 35.0 34.5 16.8 34 11.7 NE 15 22 8 12 1014.4 1013.8 0.0
01/10:30am 34.7 34.6 17.9 37 10.9 NE 15 22 8 12 1014.7 1014.1 0.0
01/10:00am 34.3 36.1 18.3 38 10.5 ESE 6 11 3 6 1014.7 1014.1 0.0
01/09:30am 32.7 34.8 18.1 42 9.5 SE 4 9 2 5 1014.4 1013.6 0.0
01/09:00am 31.2 33.7 19.9 51 7.5 S 6 9 3 5 1014.4 1013.6 0.0
01/08:30am 28.9 31.8 20.6 61 5.5 SSE 6 7 3 4 1014.3 1013.5 0.0
01/08:00am 26.3 29.6 21.5 75 3.2 S 6 7 3 4 1014.2 1013.4 0.0
01/07:30am 23.9 27.7 20.2 80 2.4 CALM 0 0 0 0 1013.9 1013.1 0.0
01/07:00am 23.2 25.5 19.8 81 2.2 SSW 7 9 4 5 1013.6 1012.8 0.0
01/06:30am 23.3 25.6 19.5 79 2.4 SW 6 7 3 4 1013.3 1012.5 0.0
01/06:00am 23.3 25.5 19.7 80 2.3 SW 7 7 4 4 1013.0 1012.2 0.0
01/05:30am 23.3 26.6 19.2 78 2.6 CALM 0 0 0 0 1012.6 1011.8 0.0
01/05:00am 23.8 27.3 19.5 77 2.8 CALM 0 0 0 0 1012.6 1011.8 0.0
01/04:30am 24.1 27.6 19.6 76 2.9 CALM 0 0 0 0 1012.5 1011.7 0.0
01/04:00am 24.6 28.0 19.4 73 3.4 CALM 0 0 0 0 1012.3 1011.5 0.0
01/03:30am 25.2 27.6 19.6 71 3.6 SSW 6 7 3 4 1012.4 1011.6 0.0
01/03:00am 25.6 28.0 19.7 70 3.8 SSW 6 7 3 4 1012.3 1011.5 0.0
01/02:30am 25.9 29.4 19.5 68 4.1 CALM 0 0 0 0 1012.4 1011.6 0.0
01/02:00am 26.3 29.7 19.4 66 4.5 CALM 0 0 0 0 1012.7 1011.9 0.0
01/01:30am 27.3 30.7 19.4 62 5.1 CALM 0 0 0 0 1012.9 1012.1 0.0
01/01:00am 28.1 30.6 19.9 61 5.4 N 6 7 3 4 1013.1 1012.3 0.0
01/12:30am 28.3 31.0 19.5 59 5.7 NNW 4 6 2 3 1013.3 1012.5 0.0
01/12:00am 29.1 31.8 19.4 55 6.3 NW 4 7 2 4 1013.4 1012.6 0.0
 
Date/Time
EST
Temp
°C
App
Temp
°C
Dew
Point
Rel
Hum
%
Delta-T
°C
Wind Press
QNH
hPa
Press
MSL
hPa
Rain
since 9 am
mm
Dir
 
Spd
km/h
Gust
km/h
Spd
kts
Gust
kts
30/11:30pm 30.0 32.0 20.0 55 6.6 NNW 9 11 5 6 1013.6 1012.8 0.0
30/11:00pm 30.1 32.1 19.2 52 7.1 NW 7 11 4 6 1013.6 1012.8 0.0
30/10:30pm 30.4 32.2 18.8 50 7.5 NNW 7 11 4 6 1013.7 1012.9 0.0
30/10:00pm 30.8 32.4 18.2 47 8.1 NNW 7 9 4 5 1013.8 1013.0 0.0
30/09:30pm 31.1 32.2 18.1 46 8.4 N 9 13 5 7 1013.7 1012.9 0.0
30/09:00pm 31.2 32.6 17.9 45 8.6 N 7 11 4 6 1013.4 1012.6 0.0
30/08:30pm 32.1 33.2 17.9 42 9.2 N 9 13 5 7 1013.0 1012.2 0.0
30/08:00pm 32.0 33.4 17.9 43 9.1 NNE 7 9 4 5 1012.7 1011.9 0.0
30/07:30pm 32.3 33.7 17.7 41 9.4 NE 7 11 4 6 1012.3 1011.5 0.0
30/07:00pm 32.5 33.4 17.5 40 9.6 NE 9 13 5 7 1012.0 1011.2 0.0
30/06:30pm 33.0 32.9 15.0 33 11.2 NE 9 15 5 8 1011.5 1010.8 0.0
30/06:00pm 34.1 34.4 14.6 31 12.1 NE 6 9 3 5 1011.2 1010.5 0.0
30/05:30pm 34.8 34.4 14.1 28 12.8 NE 9 13 5 7 1010.9 1010.2 0.0
30/05:00pm 35.8 36.3 13.9 27 13.5 NE 4 11 2 6 1010.7 1010.0 0.0
30/04:30pm 36.2 36.0 13.0 24 14.2 NE 6 11 3 6 1010.6 1009.9 0.0
30/04:00pm 35.9 35.4 12.8 25 14.1 NNW 7 13 4 7 1010.7 1010.0 0.0
30/03:30pm 35.8 34.7 12.1 24 14.3 NE 9 19 5 10 1010.8 1010.1 0.0
30/03:00pm 37.4 35.8 12.8 23 15.1 NE 13 20 7 11 1010.9 1010.2 0.0

Other Formats:

Comma delimited format used in spreadsheet applications
http://www.bom.gov.au/fwo/IDQ60801/IDQ60801.94261.axf

JavaScript Object Notation format (JSON) in row-major order
http://www.bom.gov.au/fwo/IDQ60801/IDQ60801.94261.json